Cap Finistere — FLSO — position and weather

sailwx.info

Track history (hours):
 
Tides and Currents Weather Stations Pressure Air Temp Water Temp Dewpoint Dewpoint Depression Visibility Wind Speed Wind Dir Waves Ship Positions

Cap Finistere

Last reported at 2018-Feb-20 11:15 UTC. Time now 2018-Feb-20 19:54 UTC.
Position N 43°43' W 003°14'.

Length 204 m; draft 6.7 m.

Type: Ship. MMSI: 226318000.

Date/timePositionNaut miles runAvg speedWind from/ knotsBaromVisibWave heightAir tempDewpointWater temp
2018-Feb-20 11:15N 43°43' W 003°14'625.4
2018-Feb-20 11:01N 43°38' W 003°12'1325.0
2018-Feb-20 10:31N 43°26' W 003°06'5 9.6
2018-Feb-20 10:00N 43°21' W 003°04'0 0.0
2018-Feb-20 09:30N 43°21' W 003°04'0 0.0
2018-Feb-20 09:00N 43°21' W 003°04'0 0.0
2018-Feb-20 08:30N 43°21' W 003°04'0 0.0
2018-Feb-20 08:00N 43°21' W 003°04'0 0.0
2018-Feb-20 07:30N 43°21' W 003°04'0 0.0
2018-Feb-20 07:00N 43°21' W 003°04'1 1.3
2018-Feb-20 06:30N 43°21' W 003°03'815.7
2018-Feb-20 06:00N 43°28' W 003°09'713.9
2018-Feb-20 05:30N 43°35' W 003°12'24119.1
2018-Feb-19 16:51N 47°25' W 004°54'1320.2
2018-Feb-19 16:13N 47°37' W 004°59'419.8
2018-Feb-19 16:01N 47°41' W 005°01'1119.5
2018-Feb-19 15:26N 47°52' W 005°05'818.7
2018-Feb-19 15:00N 47°60' W 005°09'1018.3
2018-Feb-19 14:29N 48°09' W 005°09'919.7
2018-Feb-19 14:00N 48°18' W 005°06'816.5
2018-Feb-19 13:30N 48°26' W 005°03'917.4
2018-Feb-19 13:01N 48°33' W 004°54'1019.8
2018-Feb-19 12:30N 48°40' W 004°43'1020.3
2018-Feb-19 12:00N 48°43' W 004°29'918.0
2018-Feb-19 11:30N 48°46' W 004°16'12 9.2
2018-Feb-19 10:12N 48°43' W 003°58'0 0.0
2018-Feb-19 10:00N 48°43' W 003°58'0 0.0
2018-Feb-19 09:29N 48°43' W 003°58'0 0.0
2018-Feb-19 08:56N 48°43' W 003°58'2 4.1
2018-Feb-19 08:28N 48°45' W 003°56'6315.2
2018-Feb-19 04:21N 49°17' W 002°34'720.3
2018-Feb-19 04:01N 49°20' W 002°25'1121.7
2018-Feb-19 03:30N 49°28' W 002°13'1423.5
2018-Feb-19 02:54N 49°41' W 002°05'1025.1
2018-Feb-19 02:30N 49°49' W 001°57'1122.6
2018-Feb-19 02:00N 49°58' W 001°45'1121.5
2018-Feb-19 01:30N 50°06' W 001°35'3220.1
2018-Feb-18 23:56N 50°31' W 001°05'818.6
2018-Feb-18 23:31N 50°38' W 000°59'714.3
2018-Feb-18 23:01N 50°44' W 001°05'4 8.5
2018-Feb-18 22:30N 50°49' W 001°06'0 0.9
2018-Feb-18 22:00N 50°49' W 001°06'0 0.0
2018-Feb-18 21:30N 50°49' W 001°06'0 0.0
2018-Feb-18 21:00N 50°49' W 001°06'0 0.0
2018-Feb-18 20:31N 50°49' W 001°06'0 0.0
2018-Feb-18 20:00N 50°49' W 001°06'0 0.5
2018-Feb-18 19:31N 50°49' W 001°06'4 7.8
2018-Feb-18 19:00N 50°45' W 001°05'713.4
2018-Feb-18 18:30N 50°40' W 000°58'918.7
2018-Feb-18 18:00N 50°32' W 001°05'1018.6
2018-Feb-18 17:28N 50°25' W 001°17'919.3
2018-Feb-18 17:00N 50°19' W 001°28'1021.1
2018-Feb-18 16:30N 50°12' W 001°40'1019.7
2018-Feb-18 16:00N 50°08' W 001°54'1219.5
2018-Feb-18 15:24N 50°02' W 002°10'819.8
2018-Feb-18 14:59N 49°58' W 002°21'1620.5
2018-Feb-18 14:13N 49°53' W 002°44'421.2
2018-Feb-18 14:00N 49°50' W 002°50'1721.7
2018-Feb-18 13:13N 49°39' W 003°09'6122.0
2018-Feb-18 10:27N 48°57' W 004°17'1022.0
2018-Feb-18 09:59N 48°50' W 004°28'1121.9
2018-Feb-18 09:30N 48°42' W 004°39'1121.6
2018-Feb-18 09:00N 48°34' W 004°50'816.2
2018-Feb-18 08:31N 48°26' W 004°50'714.1
2018-Feb-18 08:00N 48°19' W 004°48'1121.5
2018-Feb-18 07:31N 48°09' W 004°45'816.1
2018-Feb-18 07:01N 48°01' W 004°45'1121.7
2018-Feb-18 06:31N 47°50' W 004°44'1224.4
2018-Feb-18 06:01N 47°38' W 004°42'24125.3
2018-Feb-17 20:29N 43°40' W 003°47'7 1.3
2018-Feb-17 15:26N 43°33' W 003°45'24824.3
2018-Feb-17 05:14N 47°35' W 005°03'625.8
2018-Feb-17 05:00N 47°41' W 005°05'1325.3
2018-Feb-17 04:28N 47°54' W 005°08'1124.1
2018-Feb-17 04:00N 48°05' W 005°10'1223.8
2018-Feb-17 03:31N 48°17' W 005°08'1019.9
2018-Feb-17 03:00N 48°26' W 005°02'1019.5
2018-Feb-17 02:30N 48°34' W 004°53'1224.1
2018-Feb-17 02:01N 48°43' W 004°41'1325.2
2018-Feb-17 01:30N 48°53' W 004°29'6726.5
2018-Feb-16 22:59N 49°42' W 003°19'1325.6
2018-Feb-16 22:28N 49°51' W 003°05'1124.1
2018-Feb-16 22:00N 49°58' W 002°51'5722.8
2018-Feb-16 19:31N 50°24' W 001°32'022.0
2018-Feb-16 19:30N 50°24' W 001°32'1323.0
2018-Feb-16 18:55N 50°31' W 001°14'820.0
2018-Feb-16 18:31N 50°36' W 001°04'714.7
2018-Feb-16 18:01N 50°44' W 001°02'611.3
2018-Feb-16 17:30N 50°49' W 001°07'0 0.9
2018-Feb-16 17:00N 50°49' W 001°06'0 0.0
2018-Feb-16 16:31N 50°49' W 001°06'0 0.0
2018-Feb-16 16:01N 50°49' W 001°06'0 0.0
2018-Feb-16 15:30N 50°49' W 001°06'0 0.0
2018-Feb-16 15:00N 50°49' W 001°06'0 0.0
2018-Feb-16 14:31N 50°49' W 001°06'0 0.1
2018-Feb-16 14:00N 50°49' W 001°06'2 4.7
2018-Feb-16 13:31N 50°46' W 001°06'816.1
2018-Feb-16 13:00N 50°40' W 000°59'918.3
2018-Feb-16 12:30N 50°33' W 001°09'1821.4
2018-Feb-16 11:41N 50°22' W 001°30'422.5
2018-Feb-16 11:29N 50°19' W 001°35'1123.0
2018-Feb-16 11:00N 50°12' W 001°48'1223.6
2018-Feb-16 10:29N 50°04' W 002°03'1524.3
2018-Feb-16 09:51N 49°56' W 002°24'1724.4
2018-Feb-16 09:09N 49°49' W 002°48'724.1
2018-Feb-16 08:51N 49°44' W 002°57'6623.8
2018-Feb-16 06:04N 49°00' W 004°13'223.7
2018-Feb-16 05:59N 48°59' W 004°15'1224.2
2018-Feb-16 05:30N 48°51' W 004°28'1224.2
2018-Feb-16 05:01N 48°43' W 004°41'1224.7
2018-Feb-16 04:30N 48°33' W 004°53'918.6
2018-Feb-16 04:00N 48°26' W 005°03'918.4
2018-Feb-16 03:31N 48°18' W 005°08'1325.8
2018-Feb-16 03:01N 48°05' W 005°11'1325.0
2018-Feb-16 02:30N 47°53' W 005°06'1325.4
2018-Feb-16 02:00N 47°41' W 004°60'24524.9
2018-Feb-15 16:10N 43°48' W 003°14'725.5
2018-Feb-15 15:55N 43°41' W 003°12'1025.3
2018-Feb-15 15:30N 43°31' W 003°08'1121.1
2018-Feb-15 15:00N 43°22' W 003°03'1 2.2
2018-Feb-15 14:31N 43°21' W 003°04'0 0.0
2018-Feb-15 14:00N 43°21' W 003°04'0 0.0
2018-Feb-15 13:31N 43°21' W 003°04'0 0.0
2018-Feb-15 13:01N 43°21' W 003°04'0 0.0
2018-Feb-15 12:30N 43°21' W 003°04'0 0.0
2018-Feb-15 12:00N 43°21' W 003°04'0 0.2
2018-Feb-15 11:30N 43°21' W 003°04'4 8.7
2018-Feb-15 11:00N 43°25' W 003°06'1223.8
2018-Feb-15 10:31N 43°36' W 003°12'25125.3
2018-Feb-15 00:36N 47°36' W 004°58'324.5
2018-Feb-15 00:29N 47°39' W 004°59'1424.3
2018-Feb-14 23:54N 47°52' W 005°05'924.0
2018-Feb-14 23:31N 48°01' W 005°09'1224.3
2018-Feb-14 23:00N 48°14' W 005°08'1223.6
2018-Feb-14 22:30N 48°25' W 005°05'918.7
2018-Feb-14 22:00N 48°32' W 004°55'1327.0
2018-Feb-14 21:31N 48°43' W 004°43'1325.6
2018-Feb-14 21:00N 48°53' W 004°30'5922.2
2018-Feb-14 18:21N 49°38' W 003°32'820.9
2018-Feb-14 18:00N 49°43' W 003°24'1920.4
2018-Feb-14 17:05N 49°53' W 002°59'121.2
2018-Feb-14 17:01N 49°54' W 002°58'7522.5
2018-Feb-14 13:39N 50°31' W 001°15'324.3
2018-Feb-14 13:31N 50°32' W 001°10'1020.9
2018-Feb-14 13:00N 50°40' W 000°59'714.6
2018-Feb-14 12:31N 50°46' W 001°05'3 5.7
2018-Feb-14 12:01N 50°49' W 001°06'0 0.0
2018-Feb-14 11:30N 50°49' W 001°06'0 0.0
2018-Feb-14 11:01N 50°49' W 001°06'0 0.0
2018-Feb-14 10:31N 50°49' W 001°06'0 0.0
2018-Feb-14 10:01N 50°49' W 001°06'0 0.0
2018-Feb-14 09:30N 50°49' W 001°06'0 0.0
2018-Feb-14 09:01N 50°49' W 001°06'2 4.2
2018-Feb-14 08:31N 50°47' W 001°06'815.1
2018-Feb-14 08:01N 50°41' W 000°58'1425.8
2018-Feb-14 07:29N 50°31' W 001°12'1327.8
2018-Feb-14 07:00N 50°23' W 001°29'1427.9
2018-Feb-14 06:31N 50°15' W 001°46'1428.0
2018-Feb-14 06:00N 50°05' W 002°03'10126.5
2018-Feb-14 02:12N 49°03' W 004°05'524.7
2018-Feb-14 02:00N 48°59' W 004°10'1326.3
2018-Feb-14 01:30N 48°51' W 004°25'1326.3
2018-Feb-14 01:00N 48°42' W 004°40'1224.1
2018-Feb-14 00:30N 48°33' W 004°51'815.1
2018-Feb-14 00:00N 48°25' W 004°50'714.9
2018-Feb-13 23:31N 48°18' W 004°46'1224.5
2018-Feb-13 23:01N 48°06' W 004°46'815.3
2018-Feb-13 22:30N 47°58' W 004°44'1325.6
2018-Feb-13 22:00N 47°46' W 004°39'24323.4
2018-Feb-13 11:39N 43°50' W 003°15'325.3
2018-Feb-13 11:30N 43°47' W 003°14'1325.6
2018-Feb-13 10:59N 43°34' W 003°09'1224.5
2018-Feb-13 10:31N 43°23' W 003°05'2 3.1
2018-Feb-13 10:01N 43°21' W 003°04'0 0.0
2018-Feb-13 09:30N 43°21' W 003°04'0 0.0
2018-Feb-13 09:00N 43°21' W 003°04'0 0.0
2018-Feb-13 08:30N 43°21' W 003°04'0 0.0
2018-Feb-13 08:01N 43°21' W 003°04'0 0.0
2018-Feb-13 07:30N 43°21' W 003°04'0 0.0
2018-Feb-13 07:01N 43°21' W 003°04'0 0.2
2018-Feb-13 06:30N 43°21' W 003°04'4 8.1
2018-Feb-13 06:01N 43°25' W 003°07'1223.8
2018-Feb-13 05:30N 43°37' W 003°10'24919.0
2018-Feb-12 16:25N 47°38' W 004°36'818.3
2018-Feb-12 16:00N 47°45' W 004°39'1123.1
2018-Feb-12 15:30N 47°56' W 004°43'816.1
2018-Feb-12 15:01N 48°04' W 004°46'1020.5
2018-Feb-12 14:31N 48°14' W 004°45'917.0
2018-Feb-12 14:00N 48°22' W 004°49'714.4
2018-Feb-12 13:30N 48°30' W 004°51'816.8
2018-Feb-12 13:00N 48°38' W 004°48'1020.6
2018-Feb-12 12:30N 48°42' W 004°33'1121.1
2018-Feb-12 12:00N 48°45' W 004°18'612.0
2018-Feb-12 11:29N 48°47' W 004°09'9 6.8
2018-Feb-12 10:13N 48°43' W 003°58'0 0.0
2018-Feb-12 09:56N 48°43' W 003°58'0 0.0
2018-Feb-12 09:29N 48°43' W 003°58'1 1.2
2018-Feb-12 08:39N 48°44' W 003°57'215.1
2018-Feb-12 08:30N 48°46' W 003°55'6216.5
2018-Feb-12 04:46N 49°16' W 002°33'513.2
2018-Feb-12 04:24N 49°19' W 002°26'613.4
2018-Feb-12 03:59N 49°22' W 002°19'1817.3
2018-Feb-12 02:57N 49°38' W 002°08'1019.3
2018-Feb-12 02:28N 49°46' W 002°01'920.1
2018-Feb-12 02:00N 49°55' W 001°55'1020.4
2018-Feb-12 01:30N 50°04' W 001°48'1121.0
2018-Feb-12 01:00N 50°12' W 001°39'2321.0
2018-Feb-11 23:55N 50°31' W 001°18'718.7
2018-Feb-11 23:30N 50°35' W 001°08'612.7
2018-Feb-11 23:01N 50°41' W 001°03'612.5
2018-Feb-11 22:30N 50°47' W 001°06'2 4.0
2018-Feb-11 22:00N 50°49' W 001°06'0 0.0
2018-Feb-11 21:30N 50°49' W 001°06'0 0.0
2018-Feb-11 21:01N 50°49' W 001°06'0 0.0
2018-Feb-11 20:30N 50°49' W 001°06'0 0.0
2018-Feb-11 20:00N 50°49' W 001°06'0 0.3
2018-Feb-11 19:30N 50°49' W 001°06'4 9.0
2018-Feb-11 19:00N 50°44' W 001°04'611.2
2018-Feb-11 18:31N 50°39' W 001°05'3219.9
2018-Feb-11 16:54N 50°15' W 001°38'820.7
2018-Feb-11 16:30N 50°10' W 001°48'1220.8
2018-Feb-11 15:56N 50°03' W 002°04'10922.5
2018-Feb-11 11:05N 48°57' W 004°17'224.8
2018-Feb-11 11:00N 48°55' W 004°20'1224.9
2018-Feb-11 10:31N 48°47' W 004°33'1225.0
2018-Feb-11 10:01N 48°38' W 004°47'1019.9
2018-Feb-11 09:30N 48°29' W 004°51'714.7
2018-Feb-11 09:01N 48°22' W 004°49'917.3
2018-Feb-11 08:30N 48°13' W 004°45'918.7
2018-Feb-11 08:01N 48°04' W 004°46'918.0
2018-Feb-11 07:30N 47°55' W 004°43'1121.9
2018-Feb-11 07:00N 47°44' W 004°40'1421.5
2018-Feb-11 06:22N 47°31' W 004°38'23223.1
2018-Feb-10 20:21N 43°42' W 003°47'924.8
2018-Feb-10 20:00N 43°33' W 003°46'0 0.1
2018-Feb-10 15:45N 43°33' W 003°45'  
Track history (hours):
 
Tides and Currents Weather Stations Pressure Air Temp Water Temp Dewpoint Dewpoint Depression Visibility Wind Speed Wind Dir Waves Ship Positions

Cap Finistere

Last reported at 2018-Feb-20 11:15 UTC. Time now 2018-Feb-20 19:54 UTC.
Position N 43°43' W 003°14'.

Length 204 m; draft 6.7 m.

Type: Ship. MMSI: 226318000.

Date/timePositionNaut miles runAvg speedWind from/ knotsBaromVisibWave heightAir tempDewpointWater temp
2018-Feb-20 11:15N 43°43' W 003°14'625.4
2018-Feb-20 11:01N 43°38' W 003°12'1325.0
2018-Feb-20 10:31N 43°26' W 003°06'5 9.6
2018-Feb-20 10:00N 43°21' W 003°04'0 0.0
2018-Feb-20 09:30N 43°21' W 003°04'0 0.0
2018-Feb-20 09:00N 43°21' W 003°04'0 0.0
2018-Feb-20 08:30N 43°21' W 003°04'0 0.0
2018-Feb-20 08:00N 43°21' W 003°04'0 0.0
2018-Feb-20 07:30N 43°21' W 003°04'0 0.0
2018-Feb-20 07:00N 43°21' W 003°04'1 1.3
2018-Feb-20 06:30N 43°21' W 003°03'815.7
2018-Feb-20 06:00N 43°28' W 003°09'713.9
2018-Feb-20 05:30N 43°35' W 003°12'24119.1
2018-Feb-19 16:51N 47°25' W 004°54'1320.2
2018-Feb-19 16:13N 47°37' W 004°59'419.8
2018-Feb-19 16:01N 47°41' W 005°01'1119.5
2018-Feb-19 15:26N 47°52' W 005°05'818.7
2018-Feb-19 15:00N 47°60' W 005°09'1018.3
2018-Feb-19 14:29N 48°09' W 005°09'919.7
2018-Feb-19 14:00N 48°18' W 005°06'816.5
2018-Feb-19 13:30N 48°26' W 005°03'917.4
2018-Feb-19 13:01N 48°33' W 004°54'1019.8
2018-Feb-19 12:30N 48°40' W 004°43'1020.3
2018-Feb-19 12:00N 48°43' W 004°29'918.0
2018-Feb-19 11:30N 48°46' W 004°16'12 9.2
2018-Feb-19 10:12N 48°43' W 003°58'0 0.0
2018-Feb-19 10:00N 48°43' W 003°58'0 0.0
2018-Feb-19 09:29N 48°43' W 003°58'0 0.0
2018-Feb-19 08:56N 48°43' W 003°58'2 4.1
2018-Feb-19 08:28N 48°45' W 003°56'6315.2
2018-Feb-19 04:21N 49°17' W 002°34'720.3
2018-Feb-19 04:01N 49°20' W 002°25'1121.7
2018-Feb-19 03:30N 49°28' W 002°13'1423.5
2018-Feb-19 02:54N 49°41' W 002°05'1025.1
2018-Feb-19 02:30N 49°49' W 001°57'1122.6
2018-Feb-19 02:00N 49°58' W 001°45'1121.5
2018-Feb-19 01:30N 50°06' W 001°35'3220.1
2018-Feb-18 23:56N 50°31' W 001°05'818.6
2018-Feb-18 23:31N 50°38' W 000°59'714.3
2018-Feb-18 23:01N 50°44' W 001°05'4 8.5
2018-Feb-18 22:30N 50°49' W 001°06'0 0.9
2018-Feb-18 22:00N 50°49' W 001°06'0 0.0
2018-Feb-18 21:30N 50°49' W 001°06'0 0.0
2018-Feb-18 21:00N 50°49' W 001°06'0 0.0
2018-Feb-18 20:31N 50°49' W 001°06'0 0.0
2018-Feb-18 20:00N 50°49' W 001°06'0 0.5
2018-Feb-18 19:31N 50°49' W 001°06'4 7.8
2018-Feb-18 19:00N 50°45' W 001°05'713.4
2018-Feb-18 18:30N 50°40' W 000°58'918.7
2018-Feb-18 18:00N 50°32' W 001°05'1018.6
2018-Feb-18 17:28N 50°25' W 001°17'919.3
2018-Feb-18 17:00N 50°19' W 001°28'1021.1
2018-Feb-18 16:30N 50°12' W 001°40'1019.7
2018-Feb-18 16:00N 50°08' W 001°54'1219.5
2018-Feb-18 15:24N 50°02' W 002°10'819.8
2018-Feb-18 14:59N 49°58' W 002°21'1620.5
2018-Feb-18 14:13N 49°53' W 002°44'421.2
2018-Feb-18 14:00N 49°50' W 002°50'1721.7
2018-Feb-18 13:13N 49°39' W 003°09'6122.0
2018-Feb-18 10:27N 48°57' W 004°17'1022.0
2018-Feb-18 09:59N 48°50' W 004°28'1121.9
2018-Feb-18 09:30N 48°42' W 004°39'1121.6
2018-Feb-18 09:00N 48°34' W 004°50'816.2
2018-Feb-18 08:31N 48°26' W 004°50'714.1
2018-Feb-18 08:00N 48°19' W 004°48'1121.5
2018-Feb-18 07:31N 48°09' W 004°45'816.1
2018-Feb-18 07:01N 48°01' W 004°45'1121.7
2018-Feb-18 06:31N 47°50' W 004°44'1224.4
2018-Feb-18 06:01N 47°38' W 004°42'24125.3
2018-Feb-17 20:29N 43°40' W 003°47'7 1.3
2018-Feb-17 15:26N 43°33' W 003°45'24824.3
2018-Feb-17 05:14N 47°35' W 005°03'625.8
2018-Feb-17 05:00N 47°41' W 005°05'1325.3
2018-Feb-17 04:28N 47°54' W 005°08'1124.1
2018-Feb-17 04:00N 48°05' W 005°10'1223.8
2018-Feb-17 03:31N 48°17' W 005°08'1019.9
2018-Feb-17 03:00N 48°26' W 005°02'1019.5
2018-Feb-17 02:30N 48°34' W 004°53'1224.1
2018-Feb-17 02:01N 48°43' W 004°41'1325.2
2018-Feb-17 01:30N 48°53' W 004°29'6726.5
2018-Feb-16 22:59N 49°42' W 003°19'1325.6
2018-Feb-16 22:28N 49°51' W 003°05'1124.1
2018-Feb-16 22:00N 49°58' W 002°51'5722.8
2018-Feb-16 19:31N 50°24' W 001°32'022.0
2018-Feb-16 19:30N 50°24' W 001°32'1323.0
2018-Feb-16 18:55N 50°31' W 001°14'820.0
2018-Feb-16 18:31N 50°36' W 001°04'714.7
2018-Feb-16 18:01N 50°44' W 001°02'611.3
2018-Feb-16 17:30N 50°49' W 001°07'0 0.9
2018-Feb-16 17:00N 50°49' W 001°06'0 0.0
2018-Feb-16 16:31N 50°49' W 001°06'0 0.0
2018-Feb-16 16:01N 50°49' W 001°06'0 0.0
2018-Feb-16 15:30N 50°49' W 001°06'0 0.0
2018-Feb-16 15:00N 50°49' W 001°06'0 0.0
2018-Feb-16 14:31N 50°49' W 001°06'0 0.1
2018-Feb-16 14:00N 50°49' W 001°06'2 4.7
2018-Feb-16 13:31N 50°46' W 001°06'816.1
2018-Feb-16 13:00N 50°40' W 000°59'918.3
2018-Feb-16 12:30N 50°33' W 001°09'1821.4
2018-Feb-16 11:41N 50°22' W 001°30'422.5
2018-Feb-16 11:29N 50°19' W 001°35'1123.0
2018-Feb-16 11:00N 50°12' W 001°48'1223.6
2018-Feb-16 10:29N 50°04' W 002°03'1524.3
2018-Feb-16 09:51N 49°56' W 002°24'1724.4
2018-Feb-16 09:09N 49°49' W 002°48'724.1
2018-Feb-16 08:51N 49°44' W 002°57'6623.8
2018-Feb-16 06:04N 49°00' W 004°13'223.7
2018-Feb-16 05:59N 48°59' W 004°15'1224.2
2018-Feb-16 05:30N 48°51' W 004°28'1224.2
2018-Feb-16 05:01N 48°43' W 004°41'1224.7
2018-Feb-16 04:30N 48°33' W 004°53'918.6
2018-Feb-16 04:00N 48°26' W 005°03'918.4
2018-Feb-16 03:31N 48°18' W 005°08'1325.8
2018-Feb-16 03:01N 48°05' W 005°11'1325.0
2018-Feb-16 02:30N 47°53' W 005°06'1325.4
2018-Feb-16 02:00N 47°41' W 004°60'24524.9
2018-Feb-15 16:10N 43°48' W 003°14'725.5
2018-Feb-15 15:55N 43°41' W 003°12'1025.3
2018-Feb-15 15:30N 43°31' W 003°08'1121.1
2018-Feb-15 15:00N 43°22' W 003°03'1 2.2
2018-Feb-15 14:31N 43°21' W 003°04'0 0.0
2018-Feb-15 14:00N 43°21' W 003°04'0 0.0
2018-Feb-15 13:31N 43°21' W 003°04'0 0.0
2018-Feb-15 13:01N 43°21' W 003°04'0 0.0
2018-Feb-15 12:30N 43°21' W 003°04'0 0.0
2018-Feb-15 12:00N 43°21' W 003°04'0 0.2
2018-Feb-15 11:30N 43°21' W 003°04'4 8.7
2018-Feb-15 11:00N 43°25' W 003°06'1223.8
2018-Feb-15 10:31N 43°36' W 003°12'25125.3
2018-Feb-15 00:36N 47°36' W 004°58'324.5
2018-Feb-15 00:29N 47°39' W 004°59'1424.3
2018-Feb-14 23:54N 47°52' W 005°05'924.0
2018-Feb-14 23:31N 48°01' W 005°09'1224.3
2018-Feb-14 23:00N 48°14' W 005°08'1223.6
2018-Feb-14 22:30N 48°25' W 005°05'918.7
2018-Feb-14 22:00N 48°32' W 004°55'1327.0
2018-Feb-14 21:31N 48°43' W 004°43'1325.6
2018-Feb-14 21:00N 48°53' W 004°30'5922.2
2018-Feb-14 18:21N 49°38' W 003°32'820.9
2018-Feb-14 18:00N 49°43' W 003°24'1920.4
2018-Feb-14 17:05N 49°53' W 002°59'121.2
2018-Feb-14 17:01N 49°54' W 002°58'7522.5
2018-Feb-14 13:39N 50°31' W 001°15'324.3
2018-Feb-14 13:31N 50°32' W 001°10'1020.9
2018-Feb-14 13:00N 50°40' W 000°59'714.6
2018-Feb-14 12:31N 50°46' W 001°05'3 5.7
2018-Feb-14 12:01N 50°49' W 001°06'0 0.0
2018-Feb-14 11:30N 50°49' W 001°06'0 0.0
2018-Feb-14 11:01N 50°49' W 001°06'0 0.0
2018-Feb-14 10:31N 50°49' W 001°06'0 0.0
2018-Feb-14 10:01N 50°49' W 001°06'0 0.0
2018-Feb-14 09:30N 50°49' W 001°06'0 0.0
2018-Feb-14 09:01N 50°49' W 001°06'2 4.2
2018-Feb-14 08:31N 50°47' W 001°06'815.1
2018-Feb-14 08:01N 50°41' W 000°58'1425.8
2018-Feb-14 07:29N 50°31' W 001°12'1327.8
2018-Feb-14 07:00N 50°23' W 001°29'1427.9
2018-Feb-14 06:31N 50°15' W 001°46'1428.0
2018-Feb-14 06:00N 50°05' W 002°03'10126.5
2018-Feb-14 02:12N 49°03' W 004°05'524.7
2018-Feb-14 02:00N 48°59' W 004°10'1326.3
2018-Feb-14 01:30N 48°51' W 004°25'1326.3
2018-Feb-14 01:00N 48°42' W 004°40'1224.1
2018-Feb-14 00:30N 48°33' W 004°51'815.1
2018-Feb-14 00:00N 48°25' W 004°50'714.9
2018-Feb-13 23:31N 48°18' W 004°46'1224.5
2018-Feb-13 23:01N 48°06' W 004°46'815.3
2018-Feb-13 22:30N 47°58' W 004°44'1325.6
2018-Feb-13 22:00N 47°46' W 004°39'24323.4
2018-Feb-13 11:39N 43°50' W 003°15'325.3
2018-Feb-13 11:30N 43°47' W 003°14'1325.6
2018-Feb-13 10:59N 43°34' W 003°09'1224.5
2018-Feb-13 10:31N 43°23' W 003°05'2 3.1
2018-Feb-13 10:01N 43°21' W 003°04'0 0.0
2018-Feb-13 09:30N 43°21' W 003°04'0 0.0
2018-Feb-13 09:00N 43°21' W 003°04'0 0.0
2018-Feb-13 08:30N 43°21' W 003°04'0 0.0
2018-Feb-13 08:01N 43°21' W 003°04'0 0.0
2018-Feb-13 07:30N 43°21' W 003°04'0 0.0
2018-Feb-13 07:01N 43°21' W 003°04'0 0.2
2018-Feb-13 06:30N 43°21' W 003°04'4 8.1
2018-Feb-13 06:01N 43°25' W 003°07'1223.8
2018-Feb-13 05:30N 43°37' W 003°10'24919.0
2018-Feb-12 16:25N 47°38' W 004°36'818.3
2018-Feb-12 16:00N 47°45' W 004°39'1123.1
2018-Feb-12 15:30N 47°56' W 004°43'816.1
2018-Feb-12 15:01N 48°04' W 004°46'1020.5
2018-Feb-12 14:31N 48°14' W 004°45'917.0
2018-Feb-12 14:00N 48°22' W 004°49'714.4
2018-Feb-12 13:30N 48°30' W 004°51'816.8
2018-Feb-12 13:00N 48°38' W 004°48'1020.6
2018-Feb-12 12:30N 48°42' W 004°33'1121.1
2018-Feb-12 12:00N 48°45' W 004°18'612.0
2018-Feb-12 11:29N 48°47' W 004°09'9 6.8
2018-Feb-12 10:13N 48°43' W 003°58'0 0.0
2018-Feb-12 09:56N 48°43' W 003°58'0 0.0
2018-Feb-12 09:29N 48°43' W 003°58'1 1.2
2018-Feb-12 08:39N 48°44' W 003°57'215.1
2018-Feb-12 08:30N 48°46' W 003°55'6216.5
2018-Feb-12 04:46N 49°16' W 002°33'513.2
2018-Feb-12 04:24N 49°19' W 002°26'613.4
2018-Feb-12 03:59N 49°22' W 002°19'1817.3
2018-Feb-12 02:57N 49°38' W 002°08'1019.3
2018-Feb-12 02:28N 49°46' W 002°01'920.1
2018-Feb-12 02:00N 49°55' W 001°55'1020.4
2018-Feb-12 01:30N 50°04' W 001°48'1121.0
2018-Feb-12 01:00N 50°12' W 001°39'2321.0
2018-Feb-11 23:55N 50°31' W 001°18'718.7
2018-Feb-11 23:30N 50°35' W 001°08'612.7
2018-Feb-11 23:01N 50°41' W 001°03'612.5
2018-Feb-11 22:30N 50°47' W 001°06'2 4.0
2018-Feb-11 22:00N 50°49' W 001°06'0 0.0
2018-Feb-11 21:30N 50°49' W 001°06'0 0.0
2018-Feb-11 21:01N 50°49' W 001°06'0 0.0
2018-Feb-11 20:30N 50°49' W 001°06'0 0.0
2018-Feb-11 20:00N 50°49' W 001°06'0 0.3
2018-Feb-11 19:30N 50°49' W 001°06'4 9.0
2018-Feb-11 19:00N 50°44' W 001°04'611.2
2018-Feb-11 18:31N 50°39' W 001°05'3219.9
2018-Feb-11 16:54N 50°15' W 001°38'820.7
2018-Feb-11 16:30N 50°10' W 001°48'1220.8
2018-Feb-11 15:56N 50°03' W 002°04'10922.5
2018-Feb-11 11:05N 48°57' W 004°17'224.8
2018-Feb-11 11:00N 48°55' W 004°20'1224.9
2018-Feb-11 10:31N 48°47' W 004°33'1225.0
2018-Feb-11 10:01N 48°38' W 004°47'1019.9
2018-Feb-11 09:30N 48°29' W 004°51'714.7
2018-Feb-11 09:01N 48°22' W 004°49'917.3
2018-Feb-11 08:30N 48°13' W 004°45'918.7
2018-Feb-11 08:01N 48°04' W 004°46'918.0
2018-Feb-11 07:30N 47°55' W 004°43'1121.9
2018-Feb-11 07:00N 47°44' W 004°40'1421.5
2018-Feb-11 06:22N 47°31' W 004°38'23223.1
2018-Feb-10 20:21N 43°42' W 003°47'924.8
2018-Feb-10 20:00N 43°33' W 003°46'0 0.1
2018-Feb-10 15:45N 43°33' W 003°45'  

Dump ship's entire track history